Time;durP1;ratioP1;P1;durP2;ratioP2;P2;SDS_P1;SDS_P2;PMS_P1;PMS_P2;Temp;Humidity;BMP_temperature;BMP_pressure;BME280_temperature;BME280_humidity;BME280_pressure;Samples;Min_cycle;Max_cycle;Signal;HPM_P1;HPM_P2
2023/03/08 00:00:50;;;;;;;4.90;2.75;;;3.30;99.90;;;;;;5079478;28;20035;-81
2023/03/08 00:03:15;;;;;;;5.40;3.38;;;3.40;99.90;;;;;;5048968;28;20033;-82
2023/03/08 00:05:41;;;;;;;11.02;4.80;;;3.40;99.90;;;;;;5067574;28;20089;-82
2023/03/08 00:08:07;;;;;;;10.93;5.72;;;3.50;99.90;;;;;;5102096;28;20024;-81
2023/03/08 00:10:33;;;;;;;7.28;5.80;;;3.40;99.90;;;;;;5102360;28;20028;-81
2023/03/08 00:12:59;;;;;;;9.13;5.88;;;3.50;99.90;;;;;;5066738;28;20061;-82
2023/03/08 00:15:24;;;;;;;8.70;6.88;;;3.50;99.90;;;;;;5102439;28;20053;-81
2023/03/08 00:17:50;;;;;;;10.43;7.07;;;3.50;99.90;;;;;;5103582;28;20039;-81
2023/03/08 00:20:16;;;;;;;12.27;7.78;;;3.60;99.90;;;;;;5070394;28;20095;-82
2023/03/08 00:22:42;;;;;;;13.32;8.18;;;3.60;99.90;;;;;;5105153;28;20028;-81
2023/03/08 00:25:09;;;;;;;9.02;7.00;;;3.50;99.90;;;;;;5070902;28;20127;-83
2023/03/08 00:27:36;;;;;;;11.57;8.57;;;3.50;99.90;;;;;;5088288;28;20092;-81
2023/03/08 00:30:04;;;;;;;11.57;8.95;;;3.50;99.90;;;;;;5087690;28;20032;-82
2023/03/08 00:32:30;;;;;;;18.05;12.00;;;3.60;99.90;;;;;;5071735;28;20028;-81
2023/03/08 00:34:56;;;;;;;18.10;12.80;;;3.60;99.90;;;;;;5069304;28;20056;-81
2023/03/08 00:37:21;;;;;;;20.13;13.15;;;3.50;99.90;;;;;;5088283;28;20035;-82
2023/03/08 00:39:51;;;;;;;17.38;12.35;;;3.50;99.90;;;;;;5085104;28;20028;-81
2023/03/08 00:42:18;;;;;;;19.58;13.45;;;3.50;99.90;;;;;;5101416;28;20032;-82
2023/03/08 00:44:43;;;;;;;20.35;12.70;;;3.40;99.90;;;;;;5082236;28;20040;-81
2023/03/08 00:47:09;;;;;;;19.88;12.63;;;3.40;99.90;;;;;;5064918;28;20039;-82
2023/03/08 00:49:35;;;;;;;19.60;13.05;;;3.40;99.90;;;;;;5063593;28;20036;-81
2023/03/08 00:52:01;;;;;;;16.92;13.05;;;3.50;99.90;;;;;;5051873;28;20032;-81
2023/03/08 00:54:28;;;;;;;16.10;12.15;;;3.50;99.90;;;;;;5072322;28;20028;-82
2023/03/08 00:56:53;;;;;;;17.27;12.10;;;3.50;99.90;;;;;;5088644;28;20024;-82
2023/03/08 00:59:19;;;;;;;16.75;13.32;;;3.50;99.90;;;;;;5087279;28;20032;-82
2023/03/08 01:01:45;;;;;;;20.85;13.38;;;3.40;99.90;;;;;;5054470;28;20032;-82
2023/03/08 01:04:11;;;;;;;18.77;13.43;;;3.50;99.90;;;;;;5073249;28;20043;-82
2023/03/08 01:06:38;;;;;;;21.27;14.32;;;3.40;99.90;;;;;;5073726;28;20033;-82
2023/03/08 01:09:04;;;;;;;19.00;13.75;;;3.50;99.90;;;;;;5090736;28;20049;-82
2023/03/08 01:11:32;;;;;;;17.77;14.05;;;3.40;99.90;;;;;;5108938;28;20082;-82
2023/03/08 01:13:58;;;;;;;21.65;13.77;;;3.40;99.90;;;;;;5092762;28;20054;-82
2023/03/08 01:16:26;;;;;;;18.50;13.25;;;3.50;99.90;;;;;;5107773;28;20028;-82
2023/03/08 01:18:54;;;;;;;16.63;12.70;;;3.50;99.90;;;;;;5106534;28;20028;-82
2023/03/08 01:21:21;;;;;;;19.08;14.25;;;3.50;99.90;;;;;;5104073;28;20024;-82
2023/03/08 01:23:47;;;;;;;17.55;13.05;;;3.60;99.90;;;;;;5085721;28;20056;-82
2023/03/08 01:26:15;;;;;;;19.63;13.43;;;3.60;99.90;;;;;;5086791;28;20047;-82
2023/03/08 01:28:41;;;;;;;17.98;13.77;;;3.70;99.90;;;;;;5101871;28;20033;-82
2023/03/08 01:31:13;;;;;;;19.65;14.10;;;3.80;99.90;;;;;;5083374;28;20119;-82
2023/03/08 01:33:39;;;;;;;19.23;14.02;;;3.80;99.90;;;;;;5084477;28;20032;-83
2023/03/08 01:36:07;;;;;;;18.30;13.80;;;3.90;99.90;;;;;;5067876;28;20397;-81
2023/03/08 01:38:33;;;;;;;18.73;13.98;;;3.90;99.90;;;;;;5085509;28;20021;-81
2023/03/08 01:41:00;;;;;;;19.60;14.45;;;4.00;99.90;;;;;;5102305;28;20091;-82
2023/03/08 01:43:35;;;;;;;19.20;13.18;;;4.00;99.90;;;;;;5084358;28;20032;-81
2023/03/08 01:46:01;;;;;;;20.00;14.80;;;4.10;99.90;;;;;;5083886;28;20032;-81
2023/03/08 01:48:35;;;;;;;17.67;13.80;;;4.10;99.90;;;;;;5084008;28;20024;-81
2023/03/08 01:51:03;;;;;;;16.75;13.38;;;4.10;99.90;;;;;;5084615;28;20096;-81
2023/03/08 01:53:31;;;;;;;17.70;13.95;;;4.20;99.90;;;;;;5101909;28;20036;-82
2023/03/08 01:55:56;;;;;;;16.65;13.07;;;4.20;99.90;;;;;;5083631;28;20036;-81
2023/03/08 01:58:23;;;;;;;18.98;13.02;;;4.30;99.90;;;;;;5084496;28;20035;-81
2023/03/08 02:00:49;;;;;;;17.50;12.95;;;4.30;99.90;;;;;;5084164;28;20031;-81
2023/03/08 02:03:15;;;;;;;19.23;13.57;;;4.30;99.90;;;;;;5068676;28;20054;-81
2023/03/08 02:05:42;;;;;;;18.85;13.35;;;4.30;99.90;;;;;;5067723;28;20059;-81
2023/03/08 02:08:08;;;;;;;19.05;13.00;;;4.30;99.90;;;;;;5084633;28;20063;-81
2023/03/08 02:10:35;;;;;;;20.75;14.20;;;4.30;99.90;;;;;;5086723;28;20028;-81
2023/03/08 02:13:05;;;;;;;24.80;13.98;;;4.30;99.90;;;;;;5069376;28;20361;-81
2023/03/08 02:15:31;;;;;;;20.17;13.55;;;4.30;99.90;;;;;;5072053;28;20515;-82
2023/03/08 02:17:57;;;;;;;20.20;13.77;;;4.30;99.90;;;;;;5109207;28;20025;-81
2023/03/08 02:20:34;;;;;;;22.63;14.93;;;4.30;99.90;;;;;;5092902;28;20024;-81
2023/03/08 02:23:06;;;;;;;23.17;15.18;;;4.30;99.90;;;;;;5113024;28;20088;-82
2023/03/08 02:25:34;;;;;;;24.63;16.15;;;4.20;99.90;;;;;;5098262;28;20031;-82
2023/03/08 02:28:00;;;;;;;24.05;15.15;;;4.20;99.90;;;;;;5088223;28;20012;-82
2023/03/08 02:33:11;;;;;;;22.48;14.98;;;4.10;99.90;;;;;;5298185;22;20033;-81
2023/03/08 02:35:43;;;;;;;21.95;15.25;;;4.10;99.90;;;;;;5063661;28;20051;-82
2023/03/08 02:38:15;;;;;;;28.13;14.75;;;4.10;99.90;;;;;;5100086;28;20021;-82
2023/03/08 02:40:54;;;;;;;25.33;15.23;;;4.10;99.90;;;;;;5080339;28;20074;-82
2023/03/08 02:43:28;;;;;;;26.90;14.02;;;4.00;99.90;;;;;;5062945;28;20032;-80
2023/03/08 02:46:01;;;;;;;26.10;14.60;;;4.00;99.90;;;;;;5079915;28;20048;-81
2023/03/08 02:48:30;;;;;;;25.45;14.98;;;4.00;99.90;;;;;;5081056;28;20091;-80
2023/03/08 02:50:58;;;;;;;20.98;15.20;;;3.90;99.90;;;;;;5075129;28;20036;-82
2023/03/08 02:53:28;;;;;;;23.40;14.85;;;3.90;99.90;;;;;;5091428;28;20032;-81
2023/03/08 02:56:00;;;;;;;23.30;14.23;;;3.90;99.90;;;;;;5094382;28;20132;-81
2023/03/08 02:58:29;;;;;;;26.42;13.93;;;4.00;99.90;;;;;;5079089;28;20033;-81
2023/03/08 03:01:06;;;;;;;25.70;15.00;;;4.00;99.90;;;;;;5095708;28;20088;-81
2023/03/08 03:03:35;;;;;;;25.05;14.43;;;4.00;99.90;;;;;;5095298;28;20133;-81
2023/03/08 03:06:01;;;;;;;28.08;13.65;;;4.00;99.90;;;;;;5058200;28;20040;-81
2023/03/08 03:08:29;;;;;;;24.20;16.13;;;4.00;99.90;;;;;;5071251;28;20077;-81
2023/03/08 03:10:55;;;;;;;23.13;15.65;;;4.00;99.90;;;;;;5071477;28;20024;-81
2023/03/08 03:13:20;;;;;;;23.63;15.57;;;3.90;99.90;;;;;;5071007;28;20060;-81
2023/03/08 03:15:46;;;;;;;25.27;15.88;;;3.90;99.90;;;;;;5054697;28;20077;-81
2023/03/08 03:18:12;;;;;;;22.25;15.05;;;3.90;99.90;;;;;;5071065;28;20504;-81
2023/03/08 03:20:38;;;;;;;27.98;17.10;;;3.90;99.90;;;;;;5075855;28;20063;-81
2023/03/08 03:23:04;;;;;;;29.02;17.50;;;3.90;99.90;;;;;;5046978;28;20035;-82
2023/03/08 03:25:29;;;;;;;32.75;19.77;;;3.90;99.90;;;;;;5073117;28;20041;-80
2023/03/08 03:27:55;;;;;;;34.53;19.95;;;3.90;99.90;;;;;;5050562;28;20480;-81
2023/03/08 03:30:21;;;;;;;39.33;21.00;;;3.80;99.90;;;;;;5050525;28;20052;-81
2023/03/08 03:32:47;;;;;;;33.00;19.98;;;3.80;99.90;;;;;;5076126;28;20053;-80
2023/03/08 03:35:13;;;;;;;30.52;19.83;;;3.80;99.90;;;;;;5065717;28;20090;-80
2023/03/08 03:37:39;;;;;;;37.13;20.60;;;3.80;99.90;;;;;;5082620;28;20025;-81
2023/03/08 03:40:05;;;;;;;82.70;27.50;;;3.80;99.90;;;;;;5081511;28;20040;-81
2023/03/08 03:42:31;;;;;;;51.33;25.27;;;3.80;99.90;;;;;;5047527;28;20385;-80
2023/03/08 03:44:56;;;;;;;93.13;26.33;;;3.70;99.90;;;;;;5084384;28;20032;-80
2023/03/08 03:47:22;;;;;;;75.43;27.13;;;3.70;99.90;;;;;;5067412;28;20032;-81
2023/03/08 03:49:48;;;;;;;55.95;26.55;;;3.70;99.90;;;;;;5052130;28;20029;-81
2023/03/08 03:52:13;;;;;;;53.40;26.70;;;3.60;99.90;;;;;;5067553;28;20056;-81
2023/03/08 03:54:39;;;;;;;53.60;25.52;;;3.60;99.90;;;;;;5082337;28;20024;-81
2023/03/08 03:57:05;;;;;;;66.43;26.73;;;3.60;99.90;;;;;;5081947;28;20037;-80
2023/03/08 03:59:32;;;;;;;55.25;26.73;;;3.60;99.90;;;;;;5080606;28;20028;-80
2023/03/08 04:01:58;;;;;;;52.05;26.65;;;3.60;99.90;;;;;;5084765;28;20081;-80
2023/03/08 04:04:24;;;;;;;57.75;30.10;;;3.60;99.90;;;;;;5085003;28;20112;-80
2023/03/08 04:06:49;;;;;;;53.60;28.02;;;3.60;99.90;;;;;;5049919;28;20040;-80
2023/03/08 04:09:17;;;;;;;69.25;30.55;;;3.60;99.90;;;;;;5066621;28;20033;-81
2023/03/08 04:11:43;;;;;;;69.00;28.30;;;3.70;99.90;;;;;;5083062;28;20407;-81
2023/03/08 04:14:09;;;;;;;65.82;28.63;;;3.60;99.90;;;;;;5084483;28;20029;-81
2023/03/08 04:16:37;;;;;;;66.78;27.80;;;3.70;99.90;;;;;;5082954;28;20081;-81
2023/03/08 04:19:06;;;;;;;128.20;28.02;;;3.70;99.90;;;;;;5081410;28;20042;-81
2023/03/08 04:21:32;;;;;;;60.05;29.17;;;3.80;99.90;;;;;;5079014;28;20020;-81
2023/03/08 04:23:58;;;;;;;70.50;28.88;;;3.80;99.90;;;;;;5078389;28;20021;-81
2023/03/08 04:26:23;;;;;;;61.10;30.27;;;3.90;99.90;;;;;;5080793;28;20063;-82
2023/03/08 04:28:49;;;;;;;56.30;28.23;;;3.90;99.90;;;;;;5083731;28;20031;-81
2023/03/08 04:31:18;;;;;;;57.22;29.13;;;3.90;99.90;;;;;;5084853;28;20028;-82
2023/03/08 04:33:44;;;;;;;58.03;29.67;;;4.00;99.90;;;;;;5077238;28;20096;-81
2023/03/08 04:36:11;;;;;;;62.22;31.83;;;4.00;99.90;;;;;;5066493;28;20088;-81
2023/03/08 04:38:37;;;;;;;65.28;30.70;;;4.00;99.90;;;;;;5067744;28;20055;-81
2023/03/08 04:41:12;;;;;;;74.10;31.52;;;4.00;99.90;;;;;;5068251;28;20025;-83
2023/03/08 04:43:51;;;;;;;65.40;31.02;;;4.00;99.90;;;;;;5069865;28;20153;-81
2023/03/08 04:46:20;;;;;;;66.35;34.03;;;4.00;99.90;;;;;;5069420;28;20028;-82
2023/03/08 04:48:46;;;;;;;65.75;33.10;;;4.10;99.90;;;;;;5086986;28;20071;-81
2023/03/08 04:51:14;;;;;;;67.95;32.38;;;4.00;99.90;;;;;;5086071;28;20465;-81
2023/03/08 04:53:40;;;;;;;63.00;32.13;;;4.10;99.90;;;;;;5062657;28;20025;-82
2023/03/08 04:56:07;;;;;;;65.32;31.83;;;4.10;99.90;;;;;;5042634;28;20044;-81
2023/03/08 04:58:36;;;;;;;60.28;30.25;;;4.10;99.90;;;;;;5059560;28;20017;-81
2023/03/08 05:01:13;;;;;;;66.53;32.22;;;4.20;99.90;;;;;;5078113;28;20016;-81
2023/03/08 05:03:39;;;;;;;59.63;30.25;;;4.20;99.90;;;;;;5058053;28;20035;-81
2023/03/08 05:06:06;;;;;;;63.40;31.17;;;4.20;99.90;;;;;;5075607;28;20105;-81
2023/03/08 05:08:31;;;;;;;69.63;34.08;;;4.30;99.90;;;;;;5076162;28;20021;-82
2023/03/08 05:11:00;;;;;;;64.65;31.60;;;4.20;99.90;;;;;;5057424;28;20029;-81
2023/03/08 05:13:26;;;;;;;72.00;35.58;;;4.20;99.90;;;;;;5055478;28;20031;-80
2023/03/08 05:15:52;;;;;;;68.28;33.55;;;4.20;99.90;;;;;;5047348;28;20076;-81
2023/03/08 05:18:18;;;;;;;74.05;36.45;;;4.10;99.90;;;;;;5043975;28;20504;-80
2023/03/08 05:20:51;;;;;;;66.80;34.50;;;4.00;99.90;;;;;;5063782;28;20072;-82
2023/03/08 05:23:17;;;;;;;75.47;35.70;;;3.90;99.90;;;;;;5063958;28;20029;-81
2023/03/08 05:25:42;;;;;;;74.13;35.55;;;3.90;99.90;;;;;;5057798;28;20044;-80
2023/03/08 05:28:08;;;;;;;80.13;36.15;;;3.90;99.90;;;;;;5023119;28;20025;-82
2023/03/08 05:30:34;;;;;;;71.80;37.65;;;3.80;99.90;;;;;;5021450;28;20035;-82
2023/03/08 05:33:00;;;;;;;69.07;35.28;;;3.80;99.90;;;;;;5049052;28;20057;-82
2023/03/08 05:35:25;;;;;;;67.45;33.70;;;3.80;99.90;;;;;;5054283;28;20041;-82
2023/03/08 05:37:51;;;;;;;72.60;36.03;;;3.80;99.90;;;;;;5052847;28;20120;-81
2023/03/08 05:40:17;;;;;;;67.32;35.53;;;3.80;99.90;;;;;;5054983;28;20031;-81
2023/03/08 05:42:42;;;;;;;70.05;36.38;;;3.70;99.90;;;;;;5065188;28;20467;-82
2023/03/08 05:45:08;;;;;;;74.90;36.00;;;3.70;99.90;;;;;;5040058;28;20086;-82
2023/03/08 05:47:34;;;;;;;64.90;33.80;;;3.60;99.90;;;;;;5059841;28;20507;-82
2023/03/08 05:50:00;;;;;;;65.30;35.42;;;3.70;99.90;;;;;;5073444;28;20032;-83
2023/03/08 05:52:25;;;;;;;67.72;35.03;;;3.70;99.90;;;;;;5074022;28;20032;-82
2023/03/08 05:54:51;;;;;;;67.60;34.95;;;3.60;99.90;;;;;;5077151;28;20035;-81
2023/03/08 05:57:17;;;;;;;73.03;35.28;;;3.60;99.90;;;;;;5076596;28;20044;-83
2023/03/08 05:59:42;;;;;;;72.45;37.35;;;3.60;99.90;;;;;;5077265;28;20025;-81
2023/03/08 06:02:08;;;;;;;72.03;35.60;;;3.50;99.90;;;;;;5078458;28;20025;-83
2023/03/08 06:04:34;;;;;;;71.70;37.22;;;3.50;99.90;;;;;;5076159;28;20472;-81
2023/03/08 06:06:59;;;;;;;71.03;36.33;;;3.50;99.90;;;;;;5077361;28;20477;-82
2023/03/08 06:09:25;;;;;;;77.65;36.70;;;3.40;99.90;;;;;;5074756;28;20025;-80
2023/03/08 06:11:51;;;;;;;74.10;35.25;;;3.30;99.90;;;;;;5073288;28;20056;-79
2023/03/08 06:14:16;;;;;;;73.63;35.97;;;3.30;99.90;;;;;;5071754;28;20070;-80
2023/03/08 06:16:42;;;;;;;74.25;35.58;;;3.40;99.90;;;;;;5055335;28;20045;-81
2023/03/08 06:19:08;;;;;;;66.20;34.22;;;3.60;99.90;;;;;;5072319;28;20036;-80
2023/03/08 06:21:33;;;;;;;78.80;37.25;;;3.70;99.90;;;;;;5072885;28;20469;-79
2023/03/08 06:23:59;;;;;;;78.03;38.22;;;3.80;99.90;;;;;;5071121;28;20032;-77
2023/03/08 06:26:24;;;;;;;78.63;36.60;;;3.70;99.90;;;;;;5038393;28;20036;-80
2023/03/08 06:28:50;;;;;;;84.05;38.20;;;3.60;99.90;;;;;;5071610;28;20029;-79
2023/03/08 06:31:17;;;;;;;77.40;35.92;;;3.50;99.90;;;;;;5054998;28;20025;-80
2023/03/08 06:33:43;;;;;;;77.88;37.40;;;3.60;99.90;;;;;;5072342;28;20260;-80
2023/03/08 06:36:15;;;;;;;70.78;36.95;;;3.70;99.90;;;;;;5072725;28;20457;-78
2023/03/08 06:38:41;;;;;;;73.57;37.75;;;3.80;99.90;;;;;;5073020;28;20028;-80
2023/03/08 06:41:08;;;;;;;71.63;35.78;;;3.80;99.90;;;;;;5054662;28;20534;-80
2023/03/08 06:43:34;;;;;;;60.00;32.67;;;3.70;99.90;;;;;;5055797;28;20078;-78
2023/03/08 06:46:12;;;;;;;63.47;32.67;;;3.70;99.90;;;;;;5060880;28;20111;-78
2023/03/08 06:48:39;;;;;;;63.92;33.85;;;3.70;99.90;;;;;;5051521;28;20056;-78
2023/03/08 06:51:05;;;;;;;63.65;33.25;;;3.60;99.90;;;;;;5051170;28;20037;-78
2023/03/08 06:53:32;;;;;;;61.17;32.75;;;3.50;99.90;;;;;;5051311;28;20363;-77
2023/03/08 06:55:57;;;;;;;50.50;28.08;;;3.40;99.90;;;;;;5070914;28;20036;-77
2023/03/08 06:58:23;;;;;;;53.58;30.00;;;3.40;99.90;;;;;;5038191;28;20048;-77
2023/03/08 07:00:49;;;;;;;52.38;28.83;;;3.50;99.90;;;;;;5072518;28;20029;-76
2023/03/08 07:03:14;;;;;;;58.92;29.73;;;3.60;99.90;;;;;;5075580;28;20465;-77
2023/03/08 07:05:40;;;;;;;51.53;29.02;;;3.70;99.90;;;;;;5075821;28;20077;-76
2023/03/08 07:08:06;;;;;;;49.55;27.52;;;3.60;99.90;;;;;;5076123;28;20060;-78
2023/03/08 07:10:33;;;;;;;50.08;27.70;;;3.60;99.90;;;;;;5075784;28;20025;-78
2023/03/08 07:12:59;;;;;;;49.42;26.80;;;3.70;99.90;;;;;;5075539;28;20461;-77
2023/03/08 07:15:24;;;;;;;49.42;27.35;;;3.80;99.90;;;;;;5058006;28;20048;-76
2023/03/08 07:17:54;;;;;;;56.55;28.83;;;3.80;99.90;;;;;;5075925;28;20373;-78
2023/03/08 07:20:21;;;;;;;46.53;26.83;;;3.80;99.90;;;;;;5075577;28;20111;-77
2023/03/08 07:22:48;;;;;;;59.80;30.50;;;3.80;99.90;;;;;;5076147;28;20020;-80
2023/03/08 07:25:15;;;;;;;52.38;27.15;;;3.80;99.90;;;;;;5033301;28;20113;-79
2023/03/08 07:27:41;;;;;;;54.45;29.75;;;3.80;99.90;;;;;;5067016;28;20032;-79
2023/03/08 07:30:12;;;;;;;56.35;29.05;;;3.90;99.90;;;;;;5054931;28;20057;-78
2023/03/08 07:32:41;;;;;;;58.95;30.30;;;3.90;99.90;;;;;;5054752;28;20090;-82
2023/03/08 07:35:08;;;;;;;56.95;29.27;;;3.90;99.90;;;;;;5082658;28;20033;-81
2023/03/08 07:37:33;;;;;;;60.92;30.25;;;3.80;99.90;;;;;;5047834;28;20477;-79
2023/03/08 07:39:59;;;;;;;66.10;33.08;;;3.90;99.90;;;;;;5049422;28;20040;-81
2023/03/08 07:42:26;;;;;;;60.20;30.65;;;3.90;99.90;;;;;;5055235;28;20108;-81
2023/03/08 07:44:52;;;;;;;64.43;31.42;;;3.80;99.90;;;;;;5066682;28;20024;-82
2023/03/08 07:47:18;;;;;;;59.15;31.02;;;3.90;99.90;;;;;;5075341;28;20111;-79
2023/03/08 07:49:44;;;;;;;65.43;32.20;;;3.90;99.90;;;;;;5070598;28;20043;-78
2023/03/08 07:52:09;;;;;;;59.13;31.13;;;4.00;99.90;;;;;;5050916;28;20044;-79
2023/03/08 07:54:35;;;;;;;63.85;32.58;;;4.10;99.90;;;;;;5088799;28;20029;-79
2023/03/08 07:57:01;;;;;;;68.85;32.83;;;4.10;99.90;;;;;;5087744;28;20040;-79
2023/03/08 07:59:27;;;;;;;64.07;32.22;;;4.10;99.90;;;;;;5061902;28;20074;-81
2023/03/08 08:01:53;;;;;;;64.72;32.83;;;4.00;99.90;;;;;;5078113;28;20033;-81
2023/03/08 08:04:19;;;;;;;63.05;32.05;;;4.00;99.90;;;;;;5084356;28;20397;-80
2023/03/08 08:06:44;;;;;;;69.05;33.53;;;4.10;99.90;;;;;;5061510;28;20492;-81
2023/03/08 08:09:13;;;;;;;65.63;33.28;;;4.10;99.90;;;;;;5057867;28;20036;-82
2023/03/08 08:11:39;;;;;;;66.57;30.48;;;4.10;99.90;;;;;;5075304;28;20544;-80
2023/03/08 08:14:05;;;;;;;65.18;34.53;;;4.20;99.90;;;;;;5078367;28;20104;-80
2023/03/08 08:16:31;;;;;;;66.38;34.20;;;4.20;99.90;;;;;;5058831;28;20117;-81
2023/03/08 08:18:57;;;;;;;61.65;31.48;;;4.30;99.90;;;;;;5063730;28;20043;-79
2023/03/08 08:21:23;;;;;;;55.63;31.23;;;4.20;99.90;;;;;;5083362;28;20115;-79
2023/03/08 08:23:48;;;;;;;60.30;30.95;;;4.30;99.90;;;;;;5084539;28;20020;-80
2023/03/08 08:26:20;;;;;;;62.20;32.47;;;4.30;99.90;;;;;;5050315;28;20071;-78
2023/03/08 08:28:50;;;;;;;67.57;33.65;;;4.40;99.90;;;;;;5064166;28;20111;-76
2023/03/08 08:31:19;;;;;;;58.17;30.70;;;4.30;99.90;;;;;;5057586;28;20085;-79
2023/03/08 08:33:45;;;;;;;64.90;34.42;;;4.30;99.90;;;;;;5064107;28;20044;-81
2023/03/08 08:36:17;;;;;;;60.95;33.50;;;4.30;99.90;;;;;;5073511;28;20402;-80
2023/03/08 08:38:44;;;;;;;60.22;32.25;;;4.40;99.90;;;;;;5074308;28;20028;-80
2023/03/08 08:41:11;;;;;;;58.40;32.95;;;4.30;99.90;;;;;;5074900;28;20029;-82
2023/03/08 08:43:37;;;;;;;57.35;31.20;;;4.40;99.90;;;;;;5052764;28;20021;-81
2023/03/08 08:46:04;;;;;;;54.00;30.17;;;4.50;99.90;;;;;;5053240;28;20059;-80
2023/03/08 08:48:32;;;;;;;54.08;29.50;;;4.50;99.90;;;;;;5053338;28;20029;-79
2023/03/08 08:50:59;;;;;;;55.30;28.48;;;4.50;99.90;;;;;;5054463;28;20029;-80
2023/03/08 08:53:24;;;;;;;42.78;25.15;;;4.50;99.90;;;;;;5053918;28;20021;-80
2023/03/08 08:55:50;;;;;;;43.60;25.50;;;4.50;99.90;;;;;;5055797;28;20040;-80
2023/03/08 08:58:16;;;;;;;36.92;22.15;;;4.50;99.90;;;;;;5071650;28;20035;-81
2023/03/08 09:00:43;;;;;;;37.55;21.23;;;4.40;99.90;;;;;;5073132;28;20029;-81
2023/03/08 09:03:09;;;;;;;38.15;21.40;;;4.40;99.90;;;;;;5073911;28;20024;-77
2023/03/08 09:05:39;;;;;;;31.60;18.83;;;4.40;99.90;;;;;;5072475;28;20060;-79
2023/03/08 09:08:06;;;;;;;35.80;19.13;;;4.40;99.90;;;;;;5070540;28;20032;-80
2023/03/08 09:10:34;;;;;;;28.00;17.67;;;4.40;99.90;;;;;;5072390;28;20031;-79
2023/03/08 09:12:59;;;;;;;33.80;19.05;;;4.60;99.90;;;;;;5070586;28;20158;-79
2023/03/08 09:15:26;;;;;;;36.38;19.70;;;4.50;99.90;;;;;;5070972;28;20127;-80
2023/03/08 09:17:51;;;;;;;35.67;20.67;;;4.40;99.90;;;;;;5071082;28;20119;-79
2023/03/08 09:20:17;;;;;;;34.47;20.42;;;4.30;99.90;;;;;;5071901;28;20492;-79
2023/03/08 09:22:43;;;;;;;38.13;21.02;;;4.20;99.90;;;;;;5070896;28;20523;-80
2023/03/08 09:25:10;;;;;;;34.63;20.40;;;4.10;99.90;;;;;;5070452;28;20087;-79
2023/03/08 09:27:38;;;;;;;33.75;20.38;;;4.30;99.90;;;;;;5068685;28;20070;-79
2023/03/08 09:30:05;;;;;;;31.38;20.25;;;4.50;99.90;;;;;;5072300;28;20111;-79
2023/03/08 09:32:35;;;;;;;34.03;18.98;;;4.60;99.90;;;;;;5073216;28;20028;-79
2023/03/08 09:35:01;;;;;;;31.63;19.55;;;4.60;99.90;;;;;;5073701;28;20151;-79
2023/03/08 09:37:26;;;;;;;28.48;17.13;;;4.70;99.90;;;;;;5055352;28;20121;-79
2023/03/08 09:39:53;;;;;;;27.17;15.75;;;4.70;99.90;;;;;;5021304;28;20406;-79
2023/03/08 09:42:21;;;;;;;23.83;15.15;;;4.80;99.90;;;;;;5038412;28;20039;-80
2023/03/08 09:44:55;;;;;;;23.95;15.05;;;4.80;99.90;;;;;;5073216;28;20476;-79
2023/03/08 09:47:48;;;;;;;20.52;13.02;;;4.80;99.90;;;;;;5073286;28;20098;-80
2023/03/08 09:50:26;;;;;;;21.27;13.73;;;4.80;99.90;;;;;;5052764;28;20470;-81
2023/03/08 09:53:18;;;;;;;23.10;13.68;;;4.80;99.90;;;;;;5054080;28;20029;-80
2023/03/08 09:55:48;;;;;;;27.27;15.65;;;4.70;99.90;;;;;;5051174;28;20040;-81
2023/03/08 09:58:33;;;;;;;22.02;14.00;;;4.70;99.90;;;;;;5036108;28;20485;-81
2023/03/08 10:01:25;;;;;;;24.98;14.98;;;4.70;99.90;;;;;;5056907;28;20056;-82
2023/03/08 10:03:54;;;;;;;20.35;13.00;;;4.60;99.90;;;;;;5058027;28;20521;-81
2023/03/08 10:06:30;;;;;;;21.83;14.07;;;4.70;99.90;;;;;;5072985;28;20472;-79
2023/03/08 10:09:20;;;;;;;26.85;16.23;;;4.70;99.90;;;;;;5075015;28;20032;-80
2023/03/08 10:12:09;;;;;;;24.08;14.30;;;4.70;99.90;;;;;;5056413;28;20028;-80
2023/03/08 10:14:39;;;;;;;22.58;14.73;;;4.60;99.90;;;;;;5075239;28;20029;-78
2023/03/08 10:17:11;;;;;;;23.95;14.88;;;4.70;99.90;;;;;;5074483;28;20047;-80
2023/03/08 10:19:47;;;;;;;20.73;13.63;;;4.80;99.90;;;;;;5073047;28;20028;-79
2023/03/08 10:22:27;;;;;;;20.55;13.10;;;4.80;99.90;;;;;;5055465;28;20028;-80
2023/03/08 10:24:55;;;;;;;21.38;13.50;;;4.90;99.90;;;;;;5073426;28;20494;-81
2023/03/08 10:27:25;;;;;;;17.52;11.73;;;4.90;99.90;;;;;;5073536;28;20071;-79
2023/03/08 10:29:53;;;;;;;19.33;11.75;;;5.00;99.90;;;;;;5072121;28;20034;-80
2023/03/08 10:32:19;;;;;;;18.02;11.68;;;5.00;99.90;;;;;;5057281;28;20020;-80
2023/03/08 10:34:46;;;;;;;17.80;11.63;;;5.00;99.90;;;;;;5073783;28;20048;-80
2023/03/08 10:37:12;;;;;;;16.88;11.27;;;5.00;99.90;;;;;;5078041;28;20118;-81
2023/03/08 10:39:54;;;;;;;19.10;11.98;;;5.00;99.90;;;;;;5078039;28;20024;-80
2023/03/08 10:42:23;;;;;;;22.55;13.68;;;4.90;99.90;;;;;;5068402;28;20033;-80
2023/03/08 10:45:02;;;;;;;28.33;16.58;;;4.90;99.90;;;;;;5058086;28;20100;-80
2023/03/08 10:47:35;;;;;;;29.10;16.98;;;5.00;99.90;;;;;;5057622;28;20500;-80
2023/03/08 10:50:21;;;;;;;33.20;18.02;;;4.90;99.90;;;;;;5039744;28;20043;-82
2023/03/08 10:52:49;;;;;;;32.20;19.13;;;4.90;99.90;;;;;;5057139;28;20104;-80
2023/03/08 10:55:25;;;;;;;32.05;18.75;;;4.90;99.90;;;;;;5039660;28;20033;-80
2023/03/08 10:57:59;;;;;;;32.33;17.60;;;5.10;99.90;;;;;;5038734;28;20036;-80
2023/03/08 11:00:41;;;;;;;29.77;17.95;;;5.10;99.90;;;;;;5056611;28;20044;-79
2023/03/08 11:03:21;;;;;;;21.85;14.07;;;5.10;99.90;;;;;;5056316;28;20032;-80
2023/03/08 11:06:00;;;;;;;18.80;11.27;;;5.20;99.90;;;;;;5038155;28;20029;-80
2023/03/08 11:08:35;;;;;;;17.00;11.02;;;5.20;99.90;;;;;;5056413;28;20113;-81
2023/03/08 11:11:10;;;;;;;19.60;10.70;;;5.10;99.90;;;;;;5038262;28;20385;-80
2023/03/08 11:13:50;;;;;;;17.15;11.18;;;5.10;99.90;;;;;;5056074;28;20074;-81
2023/03/08 11:16:38;;;;;;;20.55;12.18;;;5.20;99.90;;;;;;5038124;28;20572;-80
2023/03/08 11:19:41;;;;;;;17.25;10.73;;;5.30;99.90;;;;;;5037631;28;20059;-79
2023/03/08 11:22:06;;;;;;;21.70;13.37;;;5.40;99.90;;;;;;5073708;28;20394;-80
2023/03/08 11:25:04;;;;;;;23.35;14.07;;;5.40;99.90;;;;;;5075731;28;20032;-80
2023/03/08 11:27:44;;;;;;;24.23;14.18;;;5.40;99.90;;;;;;5076190;28;20107;-80
2023/03/08 11:30:19;;;;;;;24.75;13.82;;;5.50;99.90;;;;;;5079330;28;20032;-79
2023/03/08 11:33:08;;;;;;;24.85;14.18;;;5.50;99.90;;;;;;5078294;28;20024;-79
2023/03/08 11:36:03;;;;;;;19.85;11.57;;;5.40;99.90;;;;;;5078248;28;20036;-80
2023/03/08 11:38:33;;;;;;;20.35;11.32;;;5.40;99.90;;;;;;5078142;28;20458;-80
2023/03/08 11:41:35;;;;;;;20.05;11.40;;;5.40;99.90;;;;;;5059741;28;20043;-79
2023/03/08 11:44:26;;;;;;;17.40;10.30;;;5.20;99.90;;;;;;5076610;28;20158;-78
2023/03/08 11:47:29;;;;;;;18.00;10.88;;;5.30;99.90;;;;;;5075933;28;20025;-78
2023/03/08 11:50:15;;;;;;;16.13;11.07;;;5.30;99.90;;;;;;4974504;28;20125;-79
2023/03/08 11:53:15;;;;;;;18.08;11.05;;;5.20;99.90;;;;;;5070989;28;20116;-79
2023/03/08 11:55:59;;;;;;;19.00;11.70;;;5.20;99.90;;;;;;5075295;28;20047;-81
2023/03/08 11:58:24;;;;;;;;;;;5.30;99.90;;;;;;5075728;28;20060;-79
2023/03/08 12:00:57;;;;;;;21.50;12.70;;;5.10;99.90;;;;;;5057402;28;19912;-79
2023/03/08 12:03:29;;;;;;;21.35;12.27;;;5.10;99.90;;;;;;5057428;28;20035;-79
2023/03/08 12:05:58;;;;;;;20.73;12.77;;;5.20;99.90;;;;;;5075236;28;20082;-79
2023/03/08 12:08:29;;;;;;;19.35;12.80;;;5.10;99.90;;;;;;5057344;28;20047;-79
2023/03/08 12:11:03;;;;;;;21.25;12.98;;;5.10;99.90;;;;;;5056859;28;20051;-79
2023/03/08 12:13:43;;;;;;;21.05;12.55;;;5.00;99.90;;;;;;5056840;28;20023;-79
2023/03/08 12:16:18;;;;;;;20.05;12.80;;;5.10;99.90;;;;;;5074486;28;20037;-79
2023/03/08 12:19:00;;;;;;;21.85;13.93;;;5.10;99.90;;;;;;5057049;28;20063;-79
2023/03/08 12:21:25;;;;;;;21.60;13.55;;;5.20;99.90;;;;;;5074738;28;20449;-79
2023/03/08 12:24:18;;;;;;;21.40;13.02;;;5.20;99.90;;;;;;5074957;28;20086;-79
2023/03/08 12:27:00;;;;;;;18.13;12.30;;;5.20;99.90;;;;;;5075303;28;20076;-78
2023/03/08 12:29:46;;;;;;;20.65;12.80;;;5.40;99.90;;;;;;5057019;28;20029;-79
2023/03/08 12:32:13;;;;;;;17.90;12.90;;;5.40;99.90;;;;;;5074612;28;20029;-80
2023/03/08 12:34:44;;;;;;;19.73;12.10;;;5.40;99.90;;;;;;5075782;28;20136;-79
2023/03/08 12:37:20;;;;;;;20.20;12.88;;;5.30;99.90;;;;;;5074757;28;20094;-78
2023/03/08 12:40:23;;;;;;;18.88;11.50;;;5.40;99.90;;;;;;5074591;28;20447;-79
2023/03/08 12:42:49;;;;;;;15.30;10.48;;;5.40;99.90;;;;;;5056963;28;20028;-80
2023/03/08 12:45:18;;;;;;;16.40;10.98;;;5.30;99.90;;;;;;5039761;28;20056;-81
2023/03/08 12:48:01;;;;;;;15.23;9.35;;;5.30;99.90;;;;;;5056045;28;20574;-81
2023/03/08 12:50:27;;;;;;;14.35;8.95;;;5.30;99.90;;;;;;5073786;28;20029;-81
2023/03/08 12:52:54;;;;;;;14.10;9.27;;;5.30;99.90;;;;;;5073696;28;20032;-81